M I D A S
Marine Information and Data Acquisition System
Tripno 1496 of the Zeeleeuw from 2008-05-30 07:44:21 to 2008-05-30 14:10:02
Back to CruiseResearch ActivitiesStationsMapUnderway DataData graphs

EquipmentUnitsComment
TimeDGPSUTC
LatitudeDGPSDM.mWGS84
LongitudeDGPSDM.mWGS84
HeadingGyrodeg 
SOGDGPSknotsSpeed over ground
COGDGPSdegCourse over ground
DepthEcho soundermeters200 kHz
Missing or incorrect values are displayed as -999
Navigation data collected by the RV Zeeleeuw from 2008-05-30 07:44:13 to 2008-05-30 14:15:19
Time Latitude Longitude Heading SOG COG Depth
2008-05-30 07:45:18 51°13.628 2°56.027 109.4 2.6 292 4.8
2008-05-30 07:46:18 51°13.655 2°55.925 115 4.9 294 -999
2008-05-30 07:47:19 51°13.697 2°55.811 127.6 5.2 305 -999
2008-05-30 07:48:19 51°13.758 2°55.708 147.4 5.3 323 -999
2008-05-30 07:49:18 51°13.838 2°55.642 160.8 5.3 339 -999
2008-05-30 07:50:19 51°13.92 2°55.635 198.8 4.4 15 -999
2008-05-30 07:51:18 51°13.955 2°55.661 231.7 0.7 277 12.6
2008-05-30 07:52:18 51°13.979 2°55.574 308.1 4.8 314 12.6
2008-05-30 07:53:18 51°14.05 2°55.5 334.6 5.4 335 12.8
2008-05-30 07:54:18 51°14.134 2°55.437 335.2 5.4 335 -999
2008-05-30 07:55:18 51°14.214 2°55.364 327.1 5.7 324 12.5
2008-05-30 07:56:18 51°14.28 2°55.251 310.2 6.1 309 12.9
2008-05-30 07:57:18 51°14.372 2°55.076 309.2 10.7 311 12.5
2008-05-30 07:58:18 51°14.532 2°54.897 325.8 12.3 334 12.5
2008-05-30 07:59:18 51°14.723 2°54.77 334 12.5 339 12
2008-05-30 08:00:18 51°14.914 2°54.642 329.5 12.4 336 11.6
2008-05-30 08:01:18 51°15.102 2°54.502 328.9 12.4 333 11
2008-05-30 08:02:18 51°15.289 2°54.36 329.6 12.5 336 11.5
2008-05-30 08:03:18 51°15.471 2°54.211 324.2 12.1 328 12.1
2008-05-30 08:04:18 51°15.642 2°54.039 322.4 12.2 328 12.9
2008-05-30 08:05:18 51°15.818 2°53.875 325.1 12.3 331 13.2
2008-05-30 08:06:18 51°15.996 2°53.715 323.9 12.3 330 13.4
2008-05-30 08:07:18 51°16.172 2°53.553 323.8 12.3 330 13.8
2008-05-30 08:08:18 51°16.354 2°53.403 329.1 12.4 335 13.9
2008-05-30 08:09:18 51°16.541 2°53.266 330.3 12.4 336 13.9
2008-05-30 08:10:18 51°16.72 2°53.104 323.1 12.3 330 13.7
2008-05-30 08:11:18 51°16.894 2°52.935 322.5 12.2 328 10.9
2008-05-30 08:12:18 51°17.057 2°52.748 320.3 12.1 324 12.5
2008-05-30 08:13:18 51°17.227 2°52.567 321.4 12.2 325 12.2
2008-05-30 08:14:18 51°17.41 2°52.42 339.7 12.7 345 12.7
2008-05-30 08:15:18 51°17.622 2°52.378 354.3 13 357 12.9
2008-05-30 08:16:18 51°17.838 2°52.363 355.4 13 357 12.7
2008-05-30 08:17:18 51°18.053 2°52.387 9 13.2 13 13
2008-05-30 08:18:18 51°18.263 2°52.487 20.8 13.3 22 13.3
2008-05-30 08:19:18 51°18.467 2°52.628 20.2 13.3 22 13.5
2008-05-30 08:20:18 51°18.672 2°52.76 21.1 13.3 22 13.9
2008-05-30 08:21:18 51°18.881 2°52.88 15.3 13.3 16 14.4
2008-05-30 08:22:18 51°19.092 2°52.981 14.4 13.3 16 14.7
2008-05-30 08:23:18 51°19.263 2°53.067 15.1 8.6 21 15.3
2008-05-30 08:24:18 51°19.353 2°53.055 307.6 3.8 319 15.7
2008-05-30 08:25:18 51°19.35 2°52.926 255.8 6.4 265 16.1
2008-05-30 08:26:18 51°19.339 2°52.764 249.3 4.7 253 16.4
2008-05-30 08:27:18 51°19.336 2°52.673 266.2 2.8 278 16.4
2008-05-30 08:28:18 51°19.341 2°52.611 261.7 2 276 16.8
2008-05-30 08:29:18 51°19.344 2°52.552 261.2 2.4 270 17
2008-05-30 08:30:18 51°19.339 2°52.502 247 1.5 248 17
2008-05-30 08:31:18 51°19.331 2°52.481 239.1 0.6 221 17
2008-05-30 08:32:18 51°19.325 2°52.48 236.6 0.3 147 17
2008-05-30 08:33:18 51°19.322 2°52.487 239.4 0.3 114 17
2008-05-30 08:34:18 51°19.319 2°52.494 239.8 0.3 140 17
2008-05-30 08:35:18 51°19.314 2°52.496 238 0.4 174 16.9
2008-05-30 08:36:18 51°19.308 2°52.496 240.3 0.2 200 16.8
2008-05-30 08:37:18 51°19.306 2°52.494 246.6 0.2 206 17
2008-05-30 08:38:18 51°19.303 2°52.493 243.9 0.2 229 17
2008-05-30 08:39:18 51°19.301 2°52.491 245.6 0.2 207 16.9
2008-05-30 08:40:18 51°19.298 2°52.489 246.7 0.1 192 16.9
2008-05-30 08:41:18 51°19.295 2°52.488 247.4 0.1 226 16.8
2008-05-30 08:42:18 51°19.294 2°52.484 257 0.2 304 16.9
2008-05-30 08:43:18 51°19.3 2°52.481 271.2 0.6 350 16.9
2008-05-30 08:44:18 51°19.31 2°52.478 274.4 0.7 349 16.9
2008-05-30 08:45:18 51°19.318 2°52.475 256.5 0.3 342 16.9
2008-05-30 08:46:18 51°19.316 2°52.478 240.5 0.2 140 17.1
2008-05-30 08:47:18 51°19.314 2°52.481 245.6 0.2 151 16.9
2008-05-30 08:48:18 51°19.313 2°52.482 251.6 -999 263 16.8
2008-05-30 08:49:18 51°19.314 2°52.482 255.4 0.1 90 17
2008-05-30 08:50:18 51°19.316 2°52.484 254.2 0.1 357 16.9
2008-05-30 08:51:18 51°19.318 2°52.486 253.3 0.1 58 16.8
2008-05-30 08:52:18 51°19.321 2°52.486 254.9 0.2 326 16.9
2008-05-30 08:53:18 51°19.325 2°52.485 257.2 0.2 356 16.9
2008-05-30 08:54:18 51°19.326 2°52.485 246 0.1 66 16.8
2008-05-30 08:55:18 51°19.323 2°52.487 235.7 0.3 154 16.9
2008-05-30 08:56:18 51°19.318 2°52.49 235.1 0.3 162 16.8
2008-05-30 08:57:18 51°19.312 2°52.492 235.5 0.4 158 16.7
2008-05-30 08:58:18 51°19.307 2°52.495 236.4 0.3 173 16.7
2008-05-30 08:59:18 51°19.302 2°52.496 239.4 0.2 180 16.8
2008-05-30 09:00:18 51°19.301 2°52.493 250.2 0.2 300 16.7
2008-05-30 09:01:18 51°19.304 2°52.49 257.1 0.3 321 16.5
2008-05-30 09:02:18 51°19.308 2°52.486 258.4 0.3 325 16.8
2008-05-30 09:03:18 51°19.313 2°52.483 257.5 0.3 337 16.9
2008-05-30 09:04:18 51°19.317 2°52.48 253.5 0.2 319 16.9
2008-05-30 09:05:18 51°19.319 2°52.477 249.1 0.1 288 16.8
2008-05-30 09:06:18 51°19.317 2°52.475 241.8 0.2 198 16.7
2008-05-30 09:07:18 51°19.313 2°52.474 239.8 0.3 201 16.9
2008-05-30 09:08:18 51°19.309 2°52.472 241.5 0.2 209 16.8
2008-05-30 09:09:18 51°19.306 2°52.469 243.8 0.1 201 16.7
2008-05-30 09:10:18 51°19.305 2°52.468 243.9 0.1 247 16.8
2008-05-30 09:11:18 51°19.302 2°52.468 242.5 0.1 199 16.8
2008-05-30 09:12:18 51°19.3 2°52.468 242.6 0.1 227 16.7
2008-05-30 09:13:18 51°19.3 2°52.467 247.2 -999 238 16.8
2008-05-30 09:14:18 51°19.301 2°52.466 251.1 0.1 333 16.7
2008-05-30 09:15:18 51°19.305 2°52.462 259 0.4 327 16.6
2008-05-30 09:16:18 51°19.313 2°52.458 266.3 0.6 342 16.8
2008-05-30 09:17:18 51°19.324 2°52.452 270.4 0.8 343 16.8
2008-05-30 09:18:18 51°19.333 2°52.448 254.7 0.4 16 16.9
2008-05-30 09:19:18 51°19.338 2°52.461 240.8 0.8 76 16.9
2008-05-30 09:20:18 51°19.343 2°52.486 234.3 1.1 73 16.9
2008-05-30 09:21:18 51°19.348 2°52.515 225.7 1.1 76 16.8
2008-05-30 09:22:18 51°19.352 2°52.544 223.5 1.2 74 16.7
2008-05-30 09:23:18 51°19.359 2°52.577 221.3 1.3 73 16.6
2008-05-30 09:24:18 51°19.363 2°52.608 216.9 0.8 96 16.6
2008-05-30 09:25:17 51°19.362 2°52.58 270.7 3.2 294 16.7
2008-05-30 09:26:18 51°19.373 2°52.415 259.5 8.8 264 16.9
2008-05-30 09:27:17 51°19.346 2°52.146 259.6 11.1 262 17.2
2008-05-30 09:28:18 51°19.335 2°51.844 264.3 11.3 267 17.4
2008-05-30 09:29:18 51°19.333 2°51.543 266.3 11.3 273 17.4
2008-05-30 09:30:18 51°19.34 2°51.24 267 11.4 272 17
2008-05-30 09:31:18 51°19.345 2°50.939 267.9 11.3 273 16.4
2008-05-30 09:32:18 51°19.349 2°50.639 267.1 11.2 271 15.1
2008-05-30 09:33:18 51°19.357 2°50.338 269.3 11.3 274 13.6
2008-05-30 09:34:17 51°19.371 2°50.045 269 11.2 274 12.8
2008-05-30 09:35:18 51°19.378 2°49.743 268.3 11.2 270 15
2008-05-30 09:36:18 51°19.385 2°49.446 267.7 11.2 274 16
2008-05-30 09:37:18 51°19.397 2°49.149 269.9 11.2 274 15.9
2008-05-30 09:38:18 51°19.406 2°48.852 267.7 11.2 274 18.2
2008-05-30 09:39:17 51°19.417 2°48.561 268.5 11.1 276 19.6
2008-05-30 09:40:18 51°19.433 2°48.261 269.2 11.2 273 21
2008-05-30 09:41:17 51°19.442 2°47.966 266.8 11.3 275 22.2
2008-05-30 09:42:18 51°19.449 2°47.662 267.9 11.3 272 23
2008-05-30 09:43:17 51°19.456 2°47.369 267.1 11.2 271 23.2
2008-05-30 09:44:18 51°19.467 2°47.064 270.9 11.3 271 23.2
2008-05-30 09:45:17 51°19.477 2°46.771 269.5 11.3 272 23.1
2008-05-30 09:46:18 51°19.484 2°46.467 268.8 11.2 276 21.2
2008-05-30 09:47:18 51°19.491 2°46.169 268 11.2 269 19.2
2008-05-30 09:48:18 51°19.494 2°45.87 267 11.2 270 17.7
2008-05-30 09:49:18 51°19.496 2°45.572 267.7 11.1 271 14.4
2008-05-30 09:50:18 51°19.504 2°45.276 269.3 11.1 275 13.8
2008-05-30 09:51:18 51°19.512 2°44.98 270.6 11.3 277 18.9
2008-05-30 09:52:17 51°19.526 2°44.685 271.2 11.3 274 23.4
2008-05-30 09:53:18 51°19.537 2°44.377 270.6 11.4 274 24
2008-05-30 09:54:18 51°19.554 2°44.073 270.5 11.5 274 25
2008-05-30 09:55:17 51°19.573 2°43.773 272.9 11.6 276 25.5
2008-05-30 09:56:18 51°19.596 2°43.466 273.4 11.3 276 26.2
2008-05-30 09:57:17 51°19.613 2°43.172 270.9 11.3 273 26.8
2008-05-30 09:58:18 51°19.63 2°42.868 275.1 11.3 277 26.8
2008-05-30 09:59:17 51°19.653 2°42.572 272.8 11.4 276 26.5
2008-05-30 10:00:18 51°19.618 2°42.277 252.6 11.3 255 25.6
2008-05-30 10:01:18 51°19.584 2°41.981 261.7 11.6 268 24.4
2008-05-30 10:02:18 51°19.599 2°41.676 277 11.6 279 22
2008-05-30 10:03:18 51°19.628 2°41.373 273.3 11.5 278 19.3
2008-05-30 10:04:18 51°19.652 2°41.072 274.3 11.4 278 19.3
2008-05-30 10:05:18 51°19.68 2°40.771 273.9 11.4 280 21.5
2008-05-30 10:06:18 51°19.711 2°40.475 274.8 11.3 282 19.2
2008-05-30 10:07:18 51°19.746 2°40.18 275 11.4 280 29.7
2008-05-30 10:08:18 51°19.773 2°39.88 274 11.6 278 31.1
2008-05-30 10:09:18 51°19.8 2°39.573 275.7 11.7 279 30.7
2008-05-30 10:10:18 51°19.824 2°39.265 272.9 11.8 278 28.8
2008-05-30 10:11:18 51°19.852 2°38.956 274.2 11.8 279 26.7
2008-05-30 10:12:18 51°19.878 2°38.646 274.8 11.8 277 25.4
2008-05-30 10:13:17 51°19.902 2°38.339 274 11.9 277 24.9
2008-05-30 10:14:18 51°19.927 2°38.023 273.5 11.8 277 24.2
2008-05-30 10:15:17 51°19.95 2°37.719 274.9 11.8 279 22.7
2008-05-30 10:16:18 51°19.978 2°37.406 274.2 11.4 279 21.8
2008-05-30 10:17:17 51°20.002 2°37.198 274.8 6.6 282 23.1
2008-05-30 10:18:18 51°20.025 2°37.038 275 5.9 284 22.6
2008-05-30 10:19:18 51°20.036 2°36.927 264.4 3.1 274 24
2008-05-30 10:20:18 51°20.041 2°36.865 272 2 292 23.6
2008-05-30 10:21:18 51°20.056 2°36.845 298.2 0.9 353 23.4
2008-05-30 10:22:18 51°20.068 2°36.857 324.1 1 64 23.8
2008-05-30 10:23:18 51°20.077 2°36.879 347 1.1 50 23.9
2008-05-30 10:24:18 51°20.09 2°36.903 0.1 1.4 40 21.8
2008-05-30 10:25:18 51°20.107 2°36.927 4.9 1.3 45 24
2008-05-30 10:26:18 51°20.121 2°36.952 6.8 1.2 50 23.4
2008-05-30 10:27:18 51°20.133 2°36.977 6.1 1.1 52 21.4
2008-05-30 10:28:18 51°20.143 2°37.002 6.4 1.3 50 22.4
2008-05-30 10:29:18 51°20.172 2°37.018 339.3 2.5 355 23.2
2008-05-30 10:30:18 51°20.199 2°36.966 264.1 2.9 266 23.7
2008-05-30 10:31:17 51°20.173 2°36.924 213.3 2.5 209 22
2008-05-30 10:32:18 51°20.14 2°36.86 240.9 3.6 244 23.6
2008-05-30 10:33:18 51°20.109 2°36.786 221.3 2.5 214 23.5
2008-05-30 10:34:18 51°20.087 2°36.781 183.3 1 147 22.9
2008-05-30 10:35:18 51°20.08 2°36.8 172.6 0.7 80 23.4
2008-05-30 10:36:18 51°20.084 2°36.82 176.7 0.8 69 23.7
2008-05-30 10:37:18 51°20.091 2°36.842 173.6 0.9 67 23.9
2008-05-30 10:38:18 51°20.099 2°36.864 166.6 1 53 22.6
2008-05-30 10:39:18 51°20.108 2°36.886 159.1 1 58 22.8
2008-05-30 10:40:18 51°20.118 2°36.907 153.8 1 55 22.9
2008-05-30 10:41:18 51°20.124 2°36.93 153.1 1 81 22.8
2008-05-30 10:42:18 51°20.115 2°36.952 181.4 1.1 149 22.6
2008-05-30 10:43:18 51°20.099 2°36.952 217.4 1 207 25.4
2008-05-30 10:44:18 51°20.088 2°36.943 230.2 0.6 202 25.1
2008-05-30 10:45:18 51°20.08 2°36.937 238.8 0.4 209 25.6
2008-05-30 10:46:18 51°20.076 2°36.933 246.6 0.3 206 25.7
2008-05-30 10:47:18 51°20.075 2°36.93 256.8 -999 300 25.6
2008-05-30 10:48:18 51°20.075 2°36.927 263.6 0.2 290 25.6
2008-05-30 10:49:17 51°20.077 2°36.925 268.7 0.1 357 26.2
2008-05-30 10:50:18 51°20.079 2°36.927 263.1 0.2 64 26.5
2008-05-30 10:51:18 51°20.079 2°36.933 260.2 0.3 113 26.2
2008-05-30 10:52:18 51°20.078 2°36.937 249.7 -999 174 25.8
2008-05-30 10:53:18 51°20.076 2°36.935 253.8 0.2 275 25.7
2008-05-30 10:54:18 51°20.078 2°36.923 274.3 0.7 297 26.4
2008-05-30 10:55:18 51°20.085 2°36.909 278.7 0.6 320 24.5
2008-05-30 10:56:18 51°20.091 2°36.905 282.6 0.4 7 21.5
2008-05-30 10:57:18 51°20.094 2°36.923 287.1 1 91 21.1
2008-05-30 10:58:18 51°20.096 2°36.949 290.4 0.9 89 26.3
2008-05-30 10:59:18 51°20.096 2°36.974 294.6 1 94 22.3
2008-05-30 11:00:18 51°20.095 2°37 298.8 1 92 21.4
2008-05-30 11:01:18 51°20.094 2°37.027 308.1 1 95 21.1
2008-05-30 11:02:18 51°20.091 2°37.053 325.7 1 104 22
2008-05-30 11:03:18 51°20.088 2°37.075 343.2 0.8 110 22.4
2008-05-30 11:04:18 51°20.083 2°37.092 359.2 0.6 110 22.5
2008-05-30 11:05:18 51°20.079 2°37.106 13 0.5 116 22.6
2008-05-30 11:06:18 51°20.076 2°37.117 24.9 0.5 111 22.5
2008-05-30 11:07:18 51°20.073 2°37.129 34.5 0.5 106 22.8
2008-05-30 11:08:18 51°20.071 2°37.141 42.7 0.5 105 22.6
2008-05-30 11:09:18 51°20.07 2°37.154 47.1 0.5 103 22.5
2008-05-30 11:10:18 51°20.069 2°37.168 48 0.5 94 22.8
2008-05-30 11:11:18 51°20.068 2°37.181 47.7 0.5 93 21.9
2008-05-30 11:12:18 51°20.067 2°37.195 46 0.5 99 20.6
2008-05-30 11:13:18 51°20.065 2°37.208 43.1 0.5 100 20.7
2008-05-30 11:14:18 51°20.064 2°37.222 42.6 0.5 101 21.6
2008-05-30 11:15:18 51°20.061 2°37.236 43.8 0.6 98 22.5
2008-05-30 11:16:18 51°20.06 2°37.25 44.4 0.5 108 22.8
2008-05-30 11:17:18 51°20.058 2°37.262 43 0.4 104 22.7
2008-05-30 11:18:18 51°20.057 2°37.274 42 0.5 104 23.1
2008-05-30 11:19:18 51°20.056 2°37.286 39.4 0.5 93 23
2008-05-30 11:20:18 51°20.056 2°37.298 36.4 0.5 106 22.9
2008-05-30 11:21:18 51°20.055 2°37.311 34.7 0.5 101 23.1
2008-05-30 11:22:18 51°20.053 2°37.323 35.1 0.5 94 22.9
2008-05-30 11:23:18 51°20.051 2°37.334 37.8 0.4 104 22.4
2008-05-30 11:24:18 51°20.049 2°37.344 39.9 0.2 87 21.9
2008-05-30 11:25:18 51°20.053 2°37.36 30.9 1.6 38 21.4
2008-05-30 11:26:18 51°20.094 2°37.359 333.4 3.2 331 22.3
2008-05-30 11:27:18 51°20.108 2°37.274 258.5 4.2 257 21.8
2008-05-30 11:28:18 51°20.089 2°37.17 259.7 3.1 259 20.6
2008-05-30 11:29:18 51°20.09 2°37.11 276.3 1.7 276 22.1
2008-05-30 11:30:18 51°20.091 2°37.087 263.1 0.1 210 22.5
2008-05-30 11:31:18 51°20.09 2°37.096 240.8 0.4 100 22.5
2008-05-30 11:32:18 51°20.088 2°37.105 221 0.3 114 22.3
2008-05-30 11:33:18 51°20.085 2°37.112 208.7 0.3 128 22.6
2008-05-30 11:34:18 51°20.081 2°37.117 205.1 0.4 142 22.3
2008-05-30 11:35:18 51°20.076 2°37.124 206.5 0.3 134 22.3
2008-05-30 11:36:18 51°20.072 2°37.128 208.3 0.3 143 22.2
2008-05-30 11:37:18 51°20.065 2°37.13 214.1 0.9 209 22.3
2008-05-30 11:38:18 51°20.05 2°37.103 247.1 1.6 243 21.8
2008-05-30 11:39:18 51°20.044 2°37.069 266.3 1 261 20.9
2008-05-30 11:40:18 51°20.043 2°37.048 266.4 0.6 253 22.3
2008-05-30 11:41:18 51°20.039 2°37.037 262.4 0.5 219 21.6
2008-05-30 11:42:18 51°20.035 2°37.032 256.6 0.2 208 20.6
2008-05-30 11:43:18 51°20.031 2°37.034 247 0.2 166 20.5
2008-05-30 11:44:18 51°20.025 2°37.032 242.8 0.5 218 19.9
2008-05-30 11:45:18 51°20.019 2°37.019 252.8 0.6 249 21.4
2008-05-30 11:46:18 51°20.016 2°37.009 255.7 0.4 248 22
2008-05-30 11:47:18 51°20.013 2°37.004 252.4 0.2 201 22
2008-05-30 11:48:18 51°20.009 2°37.003 246.3 0.2 182 21.8
2008-05-30 11:49:18 51°20.005 2°37.002 240.9 0.2 185 21.9
2008-05-30 11:50:18 51°20.001 2°37.005 232.6 0.3 157 21.8
2008-05-30 11:51:18 51°19.997 2°37.008 224.9 0.2 153 21.9
2008-05-30 11:52:18 51°19.993 2°37.011 217.9 0.2 155 21.7
2008-05-30 11:53:18 51°19.99 2°37.015 213.3 0.3 153 21.9
2008-05-30 11:54:18 51°19.986 2°37.019 209.7 0.3 147 22
2008-05-30 11:55:18 51°19.982 2°37.024 208.7 0.3 140 22.1
2008-05-30 11:56:18 51°19.979 2°37.029 208.8 0.2 133 22
2008-05-30 11:57:18 51°19.977 2°37.034 211.3 0.2 131 21.7
2008-05-30 11:58:18 51°19.975 2°37.038 215.5 0.1 151 22.2
2008-05-30 11:59:18 51°19.972 2°37.041 218.4 0.2 155 22.1
2008-05-30 12:00:18 51°19.97 2°37.044 221.8 0.2 155 22.1
2008-05-30 12:01:18 51°19.967 2°37.045 224 0.2 164 22.1
2008-05-30 12:02:18 51°19.965 2°37.049 225.3 0.1 112 22
2008-05-30 12:03:18 51°19.963 2°37.052 225.6 0.2 159 21.9
2008-05-30 12:04:18 51°19.961 2°37.054 225.5 0.2 141 22
2008-05-30 12:05:18 51°19.958 2°37.056 225.1 0.2 171 21.9
2008-05-30 12:06:18 51°19.956 2°37.057 225 0.2 161 22
2008-05-30 12:07:18 51°19.954 2°37.056 225.2 0.2 155 21.9
2008-05-30 12:08:18 51°19.951 2°37.057 224.9 0.2 164 21.9
2008-05-30 12:09:18 51°19.948 2°37.057 223.5 0.2 165 22
2008-05-30 12:10:18 51°19.944 2°37.058 222.1 0.2 172 21.7
2008-05-30 12:11:18 51°19.941 2°37.057 221.9 0.3 198 21.7
2008-05-30 12:12:18 51°19.931 2°37.036 243.2 1.8 249 20.2
2008-05-30 12:13:18 51°19.929 2°36.984 287.2 2 288 21.9
2008-05-30 12:14:18 51°19.94 2°36.945 310.2 1.3 302 21.5
2008-05-30 12:15:18 51°19.952 2°36.923 322.8 0.9 315 21.3
2008-05-30 12:16:18 51°19.959 2°36.914 336.7 0.4 325 21
2008-05-30 12:17:18 51°19.959 2°36.912 351.4 0.3 195 21.1
2008-05-30 12:18:18 51°19.954 2°36.911 8.3 0.3 202 21.5
2008-05-30 12:19:18 51°19.95 2°36.907 21.7 0.3 220 21.4
2008-05-30 12:20:18 51°19.945 2°36.902 31.2 0.4 219 21.4
2008-05-30 12:21:18 51°19.94 2°36.895 40.4 0.4 222 21.1
2008-05-30 12:22:18 51°19.935 2°36.889 48.3 0.4 223 21
2008-05-30 12:23:18 51°19.93 2°36.883 54.8 0.4 194 21.2
2008-05-30 12:24:18 51°19.917 2°36.945 125.9 4.3 144 21.6
2008-05-30 12:25:18 51°19.874 2°36.958 158.2 0.9 189 19.8
2008-05-30 12:26:18 51°19.864 2°36.953 154.4 0.6 196 21
2008-05-30 12:27:18 51°19.854 2°36.95 156.5 0.7 194 21.8
2008-05-30 12:28:18 51°19.843 2°36.944 166.6 0.8 211 21.4
2008-05-30 12:29:18 51°19.826 2°36.939 160.2 1.9 170 21.2
2008-05-30 12:30:18 51°19.808 2°36.993 83.5 3.1 74 21.2
2008-05-30 12:31:18 51°19.857 2°37.026 7.1 3.6 354 21.5
2008-05-30 12:32:18 51°19.908 2°36.996 343.9 2.9 334 21.6
2008-05-30 12:33:18 51°19.946 2°36.964 344 2 332 21.7
2008-05-30 12:34:18 51°19.972 2°36.946 353.1 1.4 342 21.1
2008-05-30 12:35:18 51°19.991 2°36.939 358.8 0.9 346 21.2
2008-05-30 12:36:18 51°20.004 2°36.933 358.3 0.7 344 21.2
2008-05-30 12:37:18 51°20.013 2°36.93 0.1 0.4 342 21.8
2008-05-30 12:38:18 51°20.02 2°36.928 2.9 0.4 345 22
2008-05-30 12:39:18 51°20.025 2°36.926 4.3 0.3 345 21.8
2008-05-30 12:40:18 51°20.027 2°36.923 6.2 0.1 320 22
2008-05-30 12:41:18 51°20.028 2°36.922 10 0.1 -999 21.9
2008-05-30 12:42:18 51°20.041 2°36.925 15.4 1.7 11 22.4
2008-05-30 12:43:18 51°20.077 2°36.934 17.5 2.1 7 24.5
2008-05-30 12:44:18 51°20.109 2°36.938 15.9 1.7 2 22.8
2008-05-30 12:45:18 51°20.132 2°36.937 14 1.1 353 21.4
2008-05-30 12:46:18 51°20.148 2°36.93 8.4 0.9 343 21.8
2008-05-30 12:47:18 51°20.159 2°36.921 7.8 0.8 335 20.8
2008-05-30 12:48:18 51°20.171 2°36.915 20.2 0.7 345 20
2008-05-30 12:49:18 51°20.19 2°36.946 71.7 3.2 84 21.3
2008-05-30 12:50:18 51°20.148 2°37.003 162.5 3.2 177 21.4
2008-05-30 12:51:18 51°20.115 2°36.993 187.6 1.3 213 19.4
2008-05-30 12:52:18 51°20.099 2°36.973 201 1.2 223 19.9
2008-05-30 12:53:18 51°20.087 2°36.954 203.9 1.1 227 23.2
2008-05-30 12:54:18 51°20.075 2°36.935 205.5 1 228 24.2
2008-05-30 12:55:18 51°20.066 2°36.917 207.1 0.9 231 23.5
2008-05-30 12:56:18 51°20.057 2°36.9 208 0.8 233 22.8
2008-05-30 12:57:18 51°20.049 2°36.883 210.1 0.8 230 22.7
2008-05-30 12:58:18 51°20.041 2°36.867 211.8 0.7 233 21.9
2008-05-30 12:59:18 51°20.032 2°36.851 211.1 0.9 227 21.4
2008-05-30 13:00:18 51°20.023 2°36.834 209.6 0.8 225 21.2
2008-05-30 13:01:18 51°20.014 2°36.819 209 0.8 227 20.8
2008-05-30 13:02:18 51°20 2°36.798 203.4 2.4 213 19.5
2008-05-30 13:03:19 51°19.901 2°36.764 179.9 8.3 183 21.3
2008-05-30 13:04:19 51°19.777 2°36.892 123.2 10.3 125 19.7
2008-05-30 13:05:18 51°19.688 2°37.152 113.2 11.6 119 21.4
2008-05-30 13:06:18 51°19.597 2°37.424 113.1 11.7 120 18.5
2008-05-30 13:07:19 51°19.499 2°37.699 116.1 11.7 122 19.2
2008-05-30 13:08:19 51°19.402 2°37.972 115.8 11.9 118 21.5
2008-05-30 13:09:19 51°19.304 2°38.247 116 11.9 122 22.8
2008-05-30 13:10:19 51°19.207 2°38.527 116.2 12.1 118 26.1
2008-05-30 13:11:19 51°19.112 2°38.81 115.1 12.2 120 27.2
2008-05-30 13:12:19 51°19.014 2°39.092 116.8 12.1 123 26.8
2008-05-30 13:13:19 51°18.908 2°39.37 119 12.2 124 24.9
2008-05-30 13:14:18 51°18.799 2°39.639 119.6 12.2 125 23.9
2008-05-30 13:15:19 51°18.689 2°39.908 117.6 12 123 24
2008-05-30 13:16:18 51°18.582 2°40.171 120.4 12 124 22.9
2008-05-30 13:17:18 51°18.475 2°40.432 119.6 11.6 119 15
2008-05-30 13:18:18 51°18.367 2°40.688 120.8 11.7 124 19
2008-05-30 13:19:18 51°18.258 2°40.944 117 11.7 128 15.7
2008-05-30 13:20:18 51°18.157 2°41.208 117.4 11.6 122 20
2008-05-30 13:21:18 51°18.053 2°41.475 119.1 11.9 122 21.2
2008-05-30 13:22:18 51°17.946 2°41.742 118.2 11.8 120 23
2008-05-30 13:23:18 51°17.835 2°42.004 120.5 12 127 23.4
2008-05-30 13:24:18 51°17.725 2°42.268 119.5 12 122 23
2008-05-30 13:25:19 51°17.612 2°42.535 118.3 11.8 122 21.9
2008-05-30 13:26:18 51°17.512 2°42.797 117.5 11.5 121 13.7
2008-05-30 13:27:18 51°17.407 2°43.047 120.7 11.3 124 10.5
2008-05-30 13:28:18 51°17.306 2°43.302 116.8 11.3 121 10.6
2008-05-30 13:29:18 51°17.202 2°43.56 118.7 11.7 124 14.2
2008-05-30 13:30:18 51°17.095 2°43.819 120.4 11.8 123 13.5
2008-05-30 13:31:18 51°16.98 2°44.075 121 11.9 125 14.9
2008-05-30 13:32:18 51°16.869 2°44.335 119.9 11.8 125 14.6
2008-05-30 13:33:19 51°16.76 2°44.603 117.2 11.8 122 12.9
2008-05-30 13:34:18 51°16.656 2°44.864 119.7 12 124 11.3
2008-05-30 13:35:18 51°16.546 2°45.125 119.7 11.9 122 11.3
2008-05-30 13:36:19 51°16.44 2°45.396 117 11.8 122 10.5
2008-05-30 13:37:18 51°16.345 2°45.666 115.2 11.9 117 9.8
2008-05-30 13:38:19 51°16.265 2°45.954 110 11.8 109 9.6
2008-05-30 13:39:19 51°16.209 2°46.25 98.3 11.6 102 9.6
2008-05-30 13:40:19 51°16.165 2°46.55 102.6 11.6 105 11.2
2008-05-30 13:41:19 51°16.107 2°46.847 105.2 11.7 108 13.2
2008-05-30 13:42:19 51°16.044 2°47.141 105.5 11.7 108 15.1
2008-05-30 13:43:19 51°15.983 2°47.434 105.2 11.6 109 15.5
2008-05-30 13:44:19 51°15.927 2°47.724 104.4 11.4 108 15.1
2008-05-30 13:45:19 51°15.861 2°48.009 107.1 11.6 111 13.6
2008-05-30 13:46:19 51°15.796 2°48.294 104.3 11.5 110 12.1
2008-05-30 13:47:19 51°15.737 2°48.585 106.1 11.5 110 10.7
2008-05-30 13:48:19 51°15.664 2°48.867 107.3 11.5 117 9.8
2008-05-30 13:49:19 51°15.586 2°49.146 109.2 11.5 115 10.5
2008-05-30 13:50:19 51°15.506 2°49.423 112.1 11.6 118 12.3
2008-05-30 13:51:19 51°15.421 2°49.699 111.3 11.5 117 12.2
2008-05-30 13:52:19 51°15.359 2°49.985 100 11.4 107 12.1
2008-05-30 13:53:19 51°15.303 2°50.275 103.9 11.4 110 12
2008-05-30 13:54:19 51°15.243 2°50.562 102.1 11.5 108 11.8
2008-05-30 13:55:19 51°15.181 2°50.85 104.1 11.4 104 11.7
2008-05-30 13:56:19 51°15.135 2°51.144 98.7 11.5 106 11.4
2008-05-30 13:57:19 51°15.085 2°51.44 100.4 11.6 101 11.1
2008-05-30 13:58:19 51°15.041 2°51.734 100 11.4 104 10.6
2008-05-30 13:59:19 51°14.984 2°52.023 101.9 11.4 104 9.8
2008-05-30 14:00:19 51°14.913 2°52.304 107.3 11.3 111 9.4
2008-05-30 14:01:19 51°14.849 2°52.588 99.4 11.4 108 9.1
2008-05-30 14:02:19 51°14.8 2°52.879 100.1 11.4 107 8.8
2008-05-30 14:03:19 51°14.76 2°53.171 95.9 11.3 103 8.6
2008-05-30 14:04:19 51°14.732 2°53.468 92.5 11.3 96 -999
2008-05-30 14:05:18 51°14.703 2°53.759 95.6 11.4 100 9.5
2008-05-30 14:06:18 51°14.674 2°54.057 93.5 11.4 99 10.8
2008-05-30 14:07:18 51°14.629 2°54.345 104.4 11.4 114 9.5
2008-05-30 14:08:19 51°14.543 2°54.62 109 11.4 119 9.7
2008-05-30 14:09:19 51°14.443 2°54.882 116.2 11.6 122 9.8
2008-05-30 14:10:19 51°14.338 2°55.142 123.3 10.8 127 9.6
2008-05-30 14:11:19 51°14.247 2°55.304 133.6 6.6 138 9.9
2008-05-30 14:12:19 51°14.162 2°55.395 149.6 7.5 152 -999
2008-05-30 14:13:19 51°14.051 2°55.48 152.2 6.9 155 -999
2008-05-30 14:14:19 51°13.964 2°55.546 153.2 5 155 -999